Steuben, Ohio
Current Conditions -  °F | °C
As of 9:02 AM on Sunday 21 Dec 2014 (Local Time) from KPCW Reporting Station
Haze Haze  
Wind Chill: 28°   Ceiling: Unl
Heat Index: 28°   Visibility: 2.5mi
Dew Point: 27°   Wind: 0mph
Humidity: 93%   Direction: NA
Pressure: 30.31"   Gusts: NA
Location:  41.2282°N, 82.706°W
Report Text: KPCW 211402Z AUTO 00000KT 2 1/2SM BR CLR M02/M03 A3031 RMK AO2 $
Loading
Personal Weather Stations






























Interactive Weather Map New forecast layout! Learn more

10-Day Weather Forecast

Advertisements
Track Severe Weather on mobile